Time;durP1;ratioP1;P1;durP2;ratioP2;P2;SDS_P1;SDS_P2;PMS_P1;PMS_P2;Temp;Humidity;BMP_temperature;BMP_pressure;BME280_temperature;BME280_humidity;BME280_pressure;Samples;Min_cycle;Max_cycle;Signal;HPM_P1;HPM_P2
2022/07/28 00:00:14;;;;;;;5.45;2.10;;;;;;;27.46;34.76;99425.69;4456452;32;34052;-63
2022/07/28 00:02:42;;;;;;;5.35;2.12;;;;;;;27.37;34.93;99419.69;4464206;32;34022;-62
2022/07/28 00:05:10;;;;;;;3.33;1.85;;;;;;;27.13;35.04;99418.75;4455389;32;33729;-62
2022/07/28 00:07:37;;;;;;;4.18;2.00;;;;;;;26.79;35.93;99416.56;4466075;32;33403;-63
2022/07/28 00:10:06;;;;;;;3.22;1.80;;;;;;;26.92;35.69;99413.66;4453747;32;32703;-64
2022/07/28 00:12:34;;;;;;;3.92;1.90;;;;;;;27.34;34.95;99417.41;4456409;32;35309;-63
2022/07/28 00:15:02;;;;;;;4.00;2.10;;;;;;;27.49;34.90;99417.00;4464094;32;33851;-64
2022/07/28 00:17:31;;;;;;;6.22;2.37;;;;;;;27.56;34.47;99412.22;4459466;32;33126;-62
2022/07/28 00:19:58;;;;;;;6.22;2.45;;;;;;;27.70;33.93;99415.63;4452335;32;33597;-63
2022/07/28 00:22:25;;;;;;;3.83;2.00;;;;;;;27.63;33.58;99410.22;4454344;32;32534;-62
2022/07/28 00:24:53;;;;;;;6.95;2.22;;;;;;;27.65;33.21;99415.50;4452121;32;33557;-62
2022/07/28 00:27:21;;;;;;;3.95;2.20;;;;;;;27.80;33.37;99421.44;4450892;32;34112;-63
2022/07/28 00:29:49;;;;;;;4.55;1.95;;;;;;;27.64;33.37;99408.34;4453820;32;35123;-61
2022/07/28 00:32:19;;;;;;;4.32;1.80;;;;;;;27.43;34.65;99415.16;4461838;32;33138;-62
2022/07/28 00:34:47;;;;;;;3.10;1.67;;;;;;;27.75;33.19;99413.00;4458353;32;33961;-62
2022/07/28 00:37:14;;;;;;;3.47;2.00;;;;;;;27.87;33.11;99410.34;4451760;32;34370;-63
2022/07/28 00:39:42;;;;;;;3.60;2.15;;;;;;;28.03;32.61;99400.56;4451712;32;34680;-61
2022/07/28 00:42:11;;;;;;;4.78;2.40;;;;;;;27.98;33.03;99403.16;4455638;32;34800;-61
2022/07/28 00:44:40;;;;;;;4.15;2.15;;;;;;;27.96;32.85;99395.16;4467600;32;35080;-62
2022/07/28 00:47:08;;;;;;;6.37;2.55;;;;;;;28.12;32.62;99401.03;4457701;32;35765;-63
2022/07/28 00:49:36;;;;;;;4.57;2.22;;;;;;;28.20;32.58;99400.69;4462334;32;32660;-63
2022/07/28 00:52:08;;;;;;;6.30;2.00;;;;;;;28.25;32.51;99396.16;4467704;32;33960;-62
2022/07/28 00:54:36;;;;;;;4.37;1.83;;;;;;;28.31;32.47;99399.84;4464853;32;33292;-62
2022/07/28 00:57:04;;;;;;;6.68;2.72;;;;;;;28.25;32.60;99392.53;4462294;32;34302;-62
2022/07/28 00:59:32;;;;;;;4.37;2.15;;;;;;;28.13;33.03;99392.56;4452780;32;34727;-63
2022/07/28 01:02:01;;;;;;;4.03;2.20;;;;;;;28.20;32.83;99401.53;4452019;32;33871;-62
2022/07/28 01:04:29;;;;;;;5.12;2.55;;;;;;;28.15;33.01;99395.06;4450566;32;33917;-62
2022/07/28 01:07:22;;;;;;;4.15;2.22;;;;;;;28.08;33.04;99396.00;4462023;32;33605;-61
2022/07/28 01:09:58;;;;;;;3.60;2.12;;;;;;;28.19;33.20;99399.03;4451297;32;33554;-63
2022/07/28 01:12:32;;;;;;;7.45;2.90;;;;;;;27.95;33.59;99395.41;4451057;32;33691;-63
2022/07/28 01:15:08;;;;;;;3.97;2.00;;;;;;;28.05;33.47;99393.72;4467473;32;34673;-63
2022/07/28 01:17:52;;;;;;;5.47;2.47;;;;;;;28.12;33.45;99398.28;4456475;32;33266;-63
2022/07/28 01:20:35;;;;;;;4.55;1.95;;;;;;;28.22;33.28;99396.63;4437810;32;33417;-61
2022/07/28 01:23:30;;;;;;;5.45;2.60;;;;;;;28.21;33.26;99392.19;4456374;32;32388;-62
2022/07/28 01:26:29;;;;;;;4.55;2.45;;;;;;;28.21;33.17;99394.94;4451658;32;34176;-60
2022/07/28 01:29:13;;;;;;;3.92;2.22;;;;;;;28.13;33.55;99398.06;4439736;32;34386;-61
2022/07/28 01:31:50;;;;;;;4.25;2.35;;;;;;;28.18;33.62;99397.34;4449795;32;32686;-61
2022/07/28 01:34:22;;;;;;;4.85;2.35;;;;;;;28.12;33.64;99390.84;4451996;32;34886;-63
2022/07/28 01:37:02;;;;;;;5.57;2.53;;;;;;;27.94;33.61;99394.56;4440671;32;33504;-63
2022/07/28 01:39:31;;;;;;;5.03;2.53;;;;;;;27.97;33.68;99396.84;4454638;32;33385;-62
2022/07/28 01:42:00;;;;;;;4.00;2.20;;;;;;;27.84;33.89;99397.06;4469052;32;33710;-62
2022/07/28 01:44:28;;;;;;;3.80;2.22;;;;;;;27.82;34.26;99408.28;4452900;32;35089;-61
2022/07/28 01:46:56;;;;;;;4.20;2.25;;;;;;;27.73;34.58;99412.41;4448352;32;34935;-62
2022/07/28 01:49:25;;;;;;;4.03;2.17;;;;;;;27.66;34.73;99419.91;4453686;32;33543;-63
2022/07/28 01:51:55;;;;;;;4.70;2.50;;;;;;;27.67;34.77;99415.25;4452658;32;33519;-63
2022/07/28 01:54:27;;;;;;;5.90;2.35;;;;;;;27.61;34.95;99406.87;4448779;32;34883;-62
2022/07/28 01:56:55;;;;;;;4.03;2.45;;;;;;;27.59;34.97;99409.00;4457766;32;33983;-62
2022/07/28 01:59:23;;;;;;;4.70;2.28;;;;;;;27.58;35.05;99407.34;4451972;32;35031;-64
2022/07/28 02:01:51;;;;;;;4.12;2.40;;;;;;;27.48;35.07;99398.84;4440522;32;34629;-61
2022/07/28 02:04:20;;;;;;;8.05;2.50;;;;;;;27.35;35.29;99399.84;4439792;32;33759;-64
2022/07/28 02:06:48;;;;;;;4.68;2.17;;;;;;;27.33;35.53;99398.41;4453872;32;33735;-63
2022/07/28 02:09:17;;;;;;;7.10;2.15;;;;;;;27.28;35.52;99395.50;4439717;32;33520;-61
2022/07/28 02:11:46;;;;;;;5.53;2.22;;;;;;;27.08;36.02;99395.75;4454929;32;33617;-61
2022/07/28 02:14:24;;;;;;;4.87;2.25;;;;;;;27.16;35.78;99387.22;4461758;32;34210;-62
2022/07/28 02:16:57;;;;;;;3.70;2.12;;;;;;;27.14;35.66;99395.69;4466674;32;34910;-63
2022/07/28 02:19:26;;;;;;;5.78;2.70;;;;;;;27.12;35.69;99385.97;4453273;32;33291;-62
2022/07/28 02:21:54;;;;;;;5.25;2.70;;;;;;;26.93;36.12;99394.25;4452378;32;34607;-61
2022/07/28 02:24:27;;;;;;;4.40;2.28;;;;;;;26.95;36.08;99394.81;4453084;32;35241;-60
2022/07/28 02:26:58;;;;;;;3.67;2.08;;;;;;;26.70;36.70;99394.06;4461078;32;34724;-63
2022/07/28 02:29:26;;;;;;;4.55;2.33;;;;;;;26.68;36.74;99388.81;4459546;32;34627;-61
2022/07/28 02:32:27;;;;;;;5.47;2.80;;;;;;;26.67;36.59;99383.53;4456390;32;32372;-61
2022/07/28 02:35:12;;;;;;;5.60;2.42;;;;;;;26.47;37.11;99392.78;4453861;32;34018;-64
2022/07/28 02:37:46;;;;;;;6.37;2.78;;;;;;;26.57;36.81;99399.69;4462783;32;33824;-63
2022/07/28 02:40:14;;;;;;;8.65;2.87;;;;;;;26.46;37.03;99399.34;4444984;32;33082;-63
2022/07/28 02:42:44;;;;;;;4.50;2.22;;;;;;;26.42;37.14;99400.03;4453162;32;33892;-63
2022/07/28 02:45:12;;;;;;;4.65;2.35;;;;;;;26.39;37.30;99398.59;4451939;32;34102;-61
2022/07/28 02:47:44;;;;;;;5.05;2.62;;;;;;;26.50;37.11;99412.66;4452564;32;33002;-63
2022/07/28 02:50:13;;;;;;;4.85;2.62;;;;;;;26.43;37.31;99407.22;4442820;32;34476;-62
2022/07/28 02:52:42;;;;;;;4.78;2.70;;;;;;;26.32;37.42;99411.50;4439086;32;33413;-62
2022/07/28 02:55:12;;;;;;;4.10;2.42;;;;;;;26.30;37.63;99415.56;4453212;32;33805;-62
2022/07/28 02:57:42;;;;;;;5.07;2.72;;;;;;;26.31;37.71;99407.09;4467980;32;33942;-62
2022/07/28 03:00:10;;;;;;;5.18;2.95;;;;;;;26.24;37.92;99411.81;4449292;32;34090;-61
2022/07/28 03:02:40;;;;;;;5.53;2.67;;;;;;;26.14;38.24;99415.06;4457085;32;34818;-61
2022/07/28 03:05:08;;;;;;;5.43;3.00;;;;;;;26.15;38.29;99414.00;4462509;32;33867;-62
2022/07/28 03:07:38;;;;;;;6.07;3.05;;;;;;;26.16;38.32;99412.09;4466596;32;33537;-61
2022/07/28 03:10:24;;;;;;;4.60;2.62;;;;;;;26.23;38.31;99421.94;4451426;32;32039;-62
2022/07/28 03:13:08;;;;;;;5.32;2.72;;;;;;;26.22;38.42;99417.50;4454693;32;34964;-63
2022/07/28 03:15:38;;;;;;;5.28;2.75;;;;;;;26.17;38.62;99420.09;4462666;32;34066;-62
2022/07/28 03:18:06;;;;;;;4.85;2.95;;;;;;;26.15;38.83;99424.97;4457408;32;33443;-61
2022/07/28 03:20:34;;;;;;;4.62;2.67;;;;;;;26.01;39.08;99426.16;4461669;32;34449;-63
2022/07/28 03:23:03;;;;;;;4.68;2.28;;;;;;;26.01;39.05;99426.16;4464124;32;33624;-61
2022/07/28 03:25:38;;;;;;;3.90;2.20;;;;;;;26.08;38.78;99417.88;4454849;32;33712;-61
2022/07/28 03:28:08;;;;;;;4.82;2.78;;;;;;;26.00;39.14;99432.66;4452906;32;33894;-61
2022/07/28 03:30:40;;;;;;;5.53;3.08;;;;;;;26.00;39.19;99433.53;4438856;32;33528;-63
2022/07/28 03:33:08;;;;;;;6.85;2.95;;;;;;;25.93;39.20;99434.63;4454460;32;34237;-60
2022/07/28 03:35:38;;;;;;;5.82;2.80;;;;;;;25.79;39.44;99429.22;4460115;32;33847;-61
2022/07/28 03:38:25;;;;;;;5.40;2.58;;;;;;;25.59;40.00;99438.63;4467925;32;33666;-63
2022/07/28 03:40:55;;;;;;;5.00;3.03;;;;;;;25.92;39.40;99435.69;4467476;32;33298;-61
2022/07/28 03:43:24;;;;;;;5.82;2.83;;;;;;;25.76;39.45;99448.84;4462023;32;34925;-61
2022/07/28 03:45:51;;;;;;;4.80;2.62;;;;;;;25.73;39.53;99449.28;4442072;32;34317;-62
2022/07/28 03:48:23;;;;;;;5.00;2.60;;;;;;;25.84;39.50;99457.88;4452391;32;35031;-61
2022/07/28 03:50:51;;;;;;;7.82;2.90;;;;;;;25.88;39.59;99445.44;4457686;32;33224;-64
2022/07/28 03:53:28;;;;;;;5.62;2.72;;;;;;;26.01;39.39;99446.19;4459308;32;35035;-65
2022/07/28 03:55:56;;;;;;;5.90;2.53;;;;;;;25.94;39.68;99447.25;4462707;32;33957;-65
2022/07/28 03:58:25;;;;;;;5.70;2.37;;;;;;;26.07;39.37;99462.78;4455129;32;32735;-62
2022/07/28 04:00:56;;;;;;;8.00;2.95;;;;;;;25.91;40.07;99455.97;4452210;32;33422;-62
2022/07/28 04:03:24;;;;;;;5.00;2.80;;;;;;;25.72;40.32;99458.56;4457874;32;33599;-63
2022/07/28 04:06:11;;;;;;;5.20;3.15;;;;;;;25.95;40.02;99465.41;4455498;32;32789;-63
2022/07/28 04:08:40;;;;;;;5.43;2.45;;;;;;;26.20;39.77;99466.28;4452616;32;33571;-64
2022/07/28 04:11:07;;;;;;;7.30;3.10;;;;;;;26.27;39.56;99463.50;4458897;32;32955;-63
2022/07/28 04:13:35;;;;;;;6.95;2.78;;;;;;;26.25;39.38;99465.59;4462849;32;33699;-62
2022/07/28 04:16:05;;;;;;;6.72;3.45;;;;;;;26.31;39.51;99461.97;4456244;32;35007;-66
2022/07/28 04:18:34;;;;;;;5.12;2.65;;;;;;;26.33;39.77;99459.84;4465837;32;33823;-62
2022/07/28 04:21:01;;;;;;;4.65;2.40;;;;;;;26.58;39.34;99476.34;4461815;32;33111;-66
2022/07/28 04:23:29;;;;;;;5.03;2.40;;;;;;;26.53;39.29;99467.09;4454464;32;33399;-68
2022/07/28 04:25:57;;;;;;;5.87;3.03;;;;;;;26.57;39.28;99471.06;4455370;32;35170;-68
2022/07/28 04:28:24;;;;;;;7.68;2.80;;;;;;;26.51;39.63;99474.69;4468254;32;33764;-68
2022/07/28 04:30:52;;;;;;;5.35;2.92;;;;;;;26.54;39.95;99472.34;4467690;32;33720;-65
2022/07/28 04:33:20;;;;;;;6.57;3.03;;;;;;;26.55;40.07;99470.44;4453618;32;35021;-65
2022/07/28 04:35:47;;;;;;;5.43;2.75;;;;;;;26.68;40.03;99468.44;4462741;32;32593;-62
2022/07/28 04:38:16;;;;;;;5.78;3.03;;;;;;;26.66;40.28;99477.94;4460770;32;33952;-64
2022/07/28 04:40:47;;;;;;;6.65;3.65;;;;;;;26.70;40.17;99473.69;4453556;32;33245;-62
2022/07/28 04:43:15;;;;;;;9.82;3.37;;;;;;;26.54;40.45;99469.59;4453417;32;33838;-62
2022/07/28 04:45:45;;;;;;;5.75;2.85;;;;;;;26.61;40.46;99477.78;4468080;32;33976;-64
2022/07/28 04:48:22;;;;;;;4.97;2.87;;;;;;;26.59;40.50;99478.00;4468047;32;33941;-62
2022/07/28 04:50:51;;;;;;;5.75;2.87;;;;;;;26.64;40.52;99486.38;4455088;32;33208;-64
2022/07/28 04:53:21;;;;;;;5.00;2.55;;;;;;;26.69;40.71;99480.25;4451677;32;34741;-62
2022/07/28 04:55:50;;;;;;;6.12;2.72;;;;;;;26.68;40.89;99479.41;4452066;32;33879;-62
2022/07/28 04:58:20;;;;;;;5.18;2.80;;;;;;;26.66;41.02;99477.94;4458827;32;34084;-62
2022/07/28 05:00:50;;;;;;;5.00;2.92;;;;;;;26.82;40.73;99476.53;4466697;32;33422;-64
2022/07/28 05:03:18;;;;;;;11.15;3.20;;;;;;;26.86;40.64;99475.81;4467494;32;33900;-62
2022/07/28 05:05:46;;;;;;;6.97;3.40;;;;;;;26.81;40.50;99474.84;4467583;32;35132;-64
2022/07/28 05:08:22;;;;;;;4.35;2.65;;;;;;;26.80;40.52;99482.22;4455072;32;34901;-62
2022/07/28 05:10:55;;;;;;;5.20;2.72;;;;;;;26.83;40.59;99479.03;4452966;32;33329;-64
2022/07/28 05:13:24;;;;;;;7.18;3.45;;;;;;;26.93;40.69;99484.84;4452425;32;34043;-64
2022/07/28 05:15:58;;;;;;;6.55;2.72;;;;;;;26.89;40.88;99480.88;4454109;32;34357;-63
2022/07/28 05:18:25;;;;;;;4.95;2.55;;;;;;;26.93;41.11;99484.00;4462538;32;34876;-62
2022/07/28 05:20:53;;;;;;;5.87;2.95;;;;;;;27.07;40.71;99485.53;4468266;32;33556;-64
2022/07/28 05:23:20;;;;;;;6.62;3.35;;;;;;;27.14;40.71;99496.47;4465992;32;34501;-62
2022/07/28 05:25:48;;;;;;;5.05;3.10;;;;;;;27.29;40.28;99498.87;4459990;32;34126;-63
2022/07/28 05:28:16;;;;;;;6.80;3.10;;;;;;;27.34;40.09;99493.50;4446085;32;32466;-65
2022/07/28 05:30:44;;;;;;;6.40;2.85;;;;;;;27.33;40.31;99500.91;4457917;32;33855;-63
2022/07/28 05:33:14;;;;;;;5.80;3.10;;;;;;;27.30;40.80;99509.59;4453654;32;33816;-64
2022/07/28 05:35:43;;;;;;;4.20;2.50;;;;;;;27.27;41.01;99507.31;4453257;32;34033;-63
2022/07/28 05:38:11;;;;;;;6.07;3.25;;;;;;;27.48;40.53;99506.03;4461310;32;34692;-65
2022/07/28 05:40:39;;;;;;;7.53;3.28;;;;;;;27.53;40.59;99508.06;4458875;32;35036;-64
2022/07/28 05:43:06;;;;;;;5.15;3.03;;;;;;;27.56;40.50;99508.44;4453678;32;34063;-64
2022/07/28 05:45:34;;;;;;;5.55;2.97;;;;;;;27.57;40.85;99512.84;4456190;32;33773;-64
2022/07/28 05:48:02;;;;;;;5.68;3.25;;;;;;;27.41;41.31;99519.81;4453156;32;33916;-62
2022/07/28 05:50:29;;;;;;;8.10;3.60;;;;;;;27.35;41.86;99523.50;4456205;32;33321;-63
2022/07/28 05:52:57;;;;;;;8.20;3.62;;;;;;;27.36;41.99;99524.34;4454167;32;34757;-62
2022/07/28 05:55:25;;;;;;;6.90;3.42;;;;;;;27.43;41.75;99516.03;4463893;32;32802;-62
2022/07/28 05:57:53;;;;;;;8.25;3.75;;;;;;;27.73;41.04;99527.03;4468021;32;34601;-62
2022/07/28 06:00:21;;;;;;;6.40;3.03;;;;;;;27.72;40.16;99531.72;4456469;32;33145;-62
2022/07/28 06:02:50;;;;;;;7.18;3.25;;;;;;;27.72;40.45;99533.63;4456230;32;33928;-63
2022/07/28 06:05:19;;;;;;;6.57;3.40;;;;;;;27.74;40.89;99518.56;4458009;32;32940;-61
2022/07/28 06:07:48;;;;;;;7.70;3.25;;;;;;;27.54;41.35;99537.22;4454186;32;33929;-63
2022/07/28 06:10:19;;;;;;;7.35;4.18;;;;;;;26.77;42.91;99539.50;4452614;32;33466;-64
2022/07/28 06:12:49;;;;;;;7.40;3.80;;;;;;;27.09;42.59;99538.31;4455002;32;32890;-62
2022/07/28 06:15:20;;;;;;;7.60;3.70;;;;;;;27.29;42.38;99546.41;4457013;32;33408;-62
2022/07/28 06:17:51;;;;;;;8.68;3.97;;;;;;;27.62;41.81;99536.91;4466484;32;33705;-61
2022/07/28 06:20:20;;;;;;;6.50;3.72;;;;;;;27.60;41.82;99539.06;4453213;32;33251;-61
2022/07/28 06:22:50;;;;;;;7.53;3.15;;;;;;;27.47;42.29;99542.81;4468443;32;33869;-62
2022/07/28 06:25:21;;;;;;;6.75;3.80;;;;;;;27.71;41.93;99540.19;4464362;32;32909;-64
2022/07/28 06:27:51;;;;;;;6.03;3.62;;;;;;;27.87;41.33;99545.09;4458936;32;33844;-64
2022/07/28 06:30:20;;;;;;;10.32;4.20;;;;;;;27.55;41.82;99544.41;4463153;32;33407;-62
2022/07/28 06:32:48;;;;;;;6.30;3.30;;;;;;;27.69;41.70;99550.59;4468710;32;33612;-62
2022/07/28 06:35:16;;;;;;;5.80;3.28;;;;;;;28.00;41.01;99550.41;4464610;32;33782;-61
2022/07/28 06:37:45;;;;;;;9.05;4.00;;;;;;;28.08;40.05;99551.97;4452986;32;33525;-64
2022/07/28 06:40:14;;;;;;;6.55;4.07;;;;;;;28.18;39.67;99556.91;4452604;32;31986;-62
2022/07/28 06:42:42;;;;;;;6.75;3.55;;;;;;;28.25;38.98;99557.66;4468881;32;35223;-62
2022/07/28 06:45:13;;;;;;;7.22;3.47;;;;;;;28.38;38.01;99546.47;4453900;32;34840;-62
2022/07/28 06:47:49;;;;;;;8.63;4.03;;;;;;;28.52;37.90;99558.97;4452446;32;34923;-62
2022/07/28 06:50:16;;;;;;;6.32;4.05;;;;;;;28.06;38.37;99556.88;4452034;32;32802;-64
2022/07/28 06:52:56;;;;;;;8.18;3.58;;;;;;;28.45;37.02;99560.16;4467691;32;32317;-63
2022/07/28 06:55:26;;;;;;;6.82;3.78;;;;;;;28.60;37.82;99565.19;4462945;32;35231;-61
2022/07/28 06:58:03;;;;;;;6.20;3.62;;;;;;;28.71;37.06;99556.12;4451745;32;33697;-64
2022/07/28 07:00:30;;;;;;;6.55;3.80;;;;;;;28.63;37.02;99568.31;4461326;32;33510;-63
2022/07/28 07:02:58;;;;;;;6.80;3.47;;;;;;;28.70;37.19;99562.69;4458196;32;33599;-63
2022/07/28 07:05:30;;;;;;;6.12;3.45;;;;;;;28.84;37.02;99563.31;4452632;32;33742;-63
2022/07/28 07:07:59;;;;;;;7.75;3.83;;;;;;;28.88;36.26;99565.34;4457304;32;34673;-64
2022/07/28 07:10:27;;;;;;;8.05;4.03;;;;;;;29.00;36.61;99568.97;4461792;32;33158;-63
2022/07/28 07:12:55;;;;;;;6.93;3.72;;;;;;;29.04;36.31;99563.00;4453295;32;33813;-63
2022/07/28 07:15:22;;;;;;;6.47;3.75;;;;;;;28.90;36.80;99560.44;4458082;32;34105;-64
2022/07/28 07:17:51;;;;;;;7.28;3.58;;;;;;;28.98;36.78;99556.47;4459190;32;34105;-63
2022/07/28 07:20:18;;;;;;;7.07;4.15;;;;;;;29.10;36.73;99567.53;4452287;32;32841;-63
2022/07/28 07:22:46;;;;;;;6.70;4.07;;;;;;;29.18;36.59;99570.78;4459176;32;33591;-63
2022/07/28 07:25:16;;;;;;;6.25;4.07;;;;;;;29.03;35.70;99570.41;4453106;32;34189;-64
2022/07/28 07:27:44;;;;;;;6.18;3.70;;;;;;;28.73;36.63;99574.09;4454529;32;34077;-62
2022/07/28 07:30:13;;;;;;;6.78;3.47;;;;;;;28.66;36.54;99567.00;4453111;32;31842;-64
2022/07/28 07:32:41;;;;;;;6.00;3.50;;;;;;;29.10;34.85;99567.53;4449323;32;116077;-64
2022/07/28 07:35:09;;;;;;;5.65;3.90;;;;;;;28.83;35.37;99570.75;4452950;32;33841;-62
2022/07/28 07:37:37;;;;;;;8.10;4.05;;;;;;;28.54;35.22;99567.00;4455428;32;33626;-63
2022/07/28 07:40:05;;;;;;;7.28;3.70;;;;;;;28.89;34.22;99568.94;4460254;32;33649;-64
2022/07/28 07:42:33;;;;;;;11.93;4.00;;;;;;;29.10;33.40;99573.06;4468225;32;33728;-65
2022/07/28 07:45:01;;;;;;;9.55;4.15;;;;;;;28.89;34.49;99561.53;4454945;32;32856;-63
2022/07/28 07:47:29;;;;;;;10.30;3.50;;;;;;;28.86;34.11;99563.91;4458822;32;33591;-62
2022/07/28 07:49:57;;;;;;;8.82;4.53;;;;;;;28.85;34.27;99563.06;4460346;32;33307;-64
2022/07/28 07:52:28;;;;;;;8.60;4.12;;;;;;;28.70;34.61;99560.78;4454050;32;33931;-64
2022/07/28 07:54:55;;;;;;;8.50;3.92;;;;;;;28.73;34.68;99560.31;4465972;32;33851;-64
2022/07/28 07:57:23;;;;;;;5.93;3.83;;;;;;;29.00;33.92;99560.72;4462295;32;32580;-64
2022/07/28 07:59:50;;;;;;;7.05;3.97;;;;;;;28.75;34.96;99560.06;4459159;32;34021;-65
2022/07/28 08:02:18;;;;;;;6.57;3.92;;;;;;;29.15;34.08;99571.25;4463077;32;33868;-64
2022/07/28 08:04:46;;;;;;;9.63;4.57;;;;;;;29.24;34.07;99563.44;4452783;32;32850;-64
2022/07/28 08:07:14;;;;;;;7.78;4.03;;;;;;;28.76;35.54;99564.50;4459939;32;35065;-63
2022/07/28 08:09:42;;;;;;;8.68;3.90;;;;;;;29.23;34.50;99567.28;4452181;32;31887;-62
2022/07/28 08:12:10;;;;;;;7.07;4.15;;;;;;;29.07;35.16;99563.34;4466684;32;32627;-65
2022/07/28 08:14:37;;;;;;;9.10;4.25;;;;;;;29.29;35.15;99565.50;4455807;32;33033;-64
2022/07/28 08:17:05;;;;;;;7.35;4.00;;;;;;;29.31;35.48;99561.44;4454642;32;35490;-64
2022/07/28 08:19:32;;;;;;;8.45;4.07;;;;;;;29.43;35.12;99553.94;4455062;32;33280;-62
2022/07/28 08:22:01;;;;;;;8.82;5.22;;;;;;;29.63;34.56;99555.50;4467934;32;34897;-63
2022/07/28 08:24:28;;;;;;;10.68;4.60;;;;;;;29.02;34.72;99558.56;4461137;32;33734;-64
2022/07/28 08:27:01;;;;;;;10.05;4.43;;;;;;;29.00;34.87;99562.59;4453442;32;33837;-63
2022/07/28 08:29:29;;;;;;;10.50;4.45;;;;;;;29.23;35.00;99556.28;4459710;32;34304;-63
2022/07/28 08:31:57;;;;;;;9.45;4.40;;;;;;;29.60;34.77;99561.47;4466750;32;33702;-65
2022/07/28 08:34:25;;;;;;;7.35;4.22;;;;;;;29.33;34.38;99550.13;4466664;32;34079;-62
2022/07/28 08:37:01;;;;;;;7.90;4.53;;;;;;;29.66;34.32;99569.66;4453659;32;34204;-64
2022/07/28 08:39:32;;;;;;;8.38;4.57;;;;;;;29.63;34.33;99570.16;4456626;32;33818;-62
2022/07/28 08:42:24;;;;;;;10.98;4.37;;;;;;;29.94;33.44;99568.81;4467343;32;34043;-62
2022/07/28 08:44:52;;;;;;;10.13;3.95;;;;;;;29.99;32.64;99565.34;4452325;32;35111;-63
2022/07/28 08:47:20;;;;;;;7.93;4.40;;;;;;;29.80;33.03;99566.63;4466450;32;33765;-64
2022/07/28 08:49:49;;;;;;;7.57;4.22;;;;;;;29.87;33.43;99562.62;4445581;32;33502;-63
2022/07/28 08:52:19;;;;;;;7.05;4.32;;;;;;;30.20;32.85;99551.97;4452381;32;33628;-64
2022/07/28 08:54:48;;;;;;;6.25;4.30;;;;;;;30.32;32.21;99552.75;4464276;32;33189;-64
2022/07/28 08:57:19;;;;;;;6.18;4.00;;;;;;;30.52;31.64;99557.78;4461199;32;33576;-63
2022/07/28 08:59:48;;;;;;;7.37;3.95;;;;;;;29.48;33.10;99553.25;4451329;32;33358;-63
2022/07/28 09:02:16;;;;;;;7.15;3.80;;;;;;;30.15;32.25;99558.19;4448694;32;32525;-63
2022/07/28 09:04:45;;;;;;;7.15;4.15;;;;;;;30.07;33.03;99555.81;4442882;32;34102;-64
2022/07/28 09:07:13;;;;;;;7.25;3.87;;;;;;;30.46;32.20;99556.00;4464625;32;32328;-62
2022/07/28 09:09:41;;;;;;;10.35;4.28;;;;;;;30.81;31.45;99550.28;4454264;32;32067;-62
2022/07/28 09:12:09;;;;;;;7.43;3.80;;;;;;;30.86;30.81;99553.13;4459184;32;33943;-64
2022/07/28 09:14:36;;;;;;;5.97;3.53;;;;;;;30.76;31.34;99558.47;4452969;32;33681;-64
2022/07/28 09:17:04;;;;;;;8.05;4.10;;;;;;;31.06;30.18;99550.66;4464237;32;35302;-64
2022/07/28 09:19:32;;;;;;;9.98;3.90;;;;;;;31.01;29.55;99545.09;4465357;32;34161;-62
2022/07/28 09:22:02;;;;;;;5.95;3.33;;;;;;;31.16;30.00;99549.97;4454183;32;33810;-64
2022/07/28 09:24:40;;;;;;;8.40;3.60;;;;;;;31.38;29.04;99550.03;4453817;32;32919;-64
2022/07/28 09:27:10;;;;;;;6.95;3.37;;;;;;;30.28;29.54;99549.63;4455103;32;35251;-63
2022/07/28 09:29:40;;;;;;;6.78;3.40;;;;;;;30.81;29.07;99545.56;4453178;32;32075;-62
2022/07/28 09:32:08;;;;;;;6.55;2.97;;;;;;;31.23;28.07;99539.56;4454979;32;33520;-62
2022/07/28 09:34:40;;;;;;;5.55;3.30;;;;;;;31.35;28.32;99541.44;4454934;32;33958;-64
2022/07/28 09:37:22;;;;;;;5.07;2.80;;;;;;;31.61;27.56;99537.06;4452009;32;34642;-62
2022/07/28 09:40:09;;;;;;;5.75;3.22;;;;;;;31.78;27.37;99527.59;4452950;32;34230;-63
2022/07/28 09:42:54;;;;;;;5.53;2.97;;;;;;;32.12;28.26;99538.50;4461876;32;33467;-62
2022/07/28 09:45:26;;;;;;;7.30;3.10;;;;;;;31.70;27.45;99527.22;4464414;32;33751;-63
2022/07/28 09:48:11;;;;;;;6.40;2.78;;;;;;;32.46;26.88;99528.06;4452897;32;34965;-63
2022/07/28 09:50:41;;;;;;;5.78;3.20;;;;;;;32.68;26.45;99527.09;4456990;32;34779;-65
2022/07/28 09:53:25;;;;;;;8.00;3.05;;;;;;;32.98;25.78;99521.00;4459431;32;33971;-62
2022/07/28 09:55:59;;;;;;;6.07;3.37;;;;;;;33.12;25.14;99521.34;4451056;32;33928;-62
2022/07/28 09:58:28;;;;;;;6.10;3.20;;;;;;;32.74;26.13;99511.38;4452990;32;34922;-64
2022/07/28 10:01:14;;;;;;;9.45;3.25;;;;;;;33.09;26.36;99516.34;4451887;32;33483;-63
2022/07/28 10:03:48;;;;;;;7.40;3.72;;;;;;;33.11;26.12;99517.75;4459690;32;34542;-63
2022/07/28 10:06:25;;;;;;;8.48;3.40;;;;;;;33.53;25.63;99511.31;4466388;32;34858;-64
2022/07/28 10:08:54;;;;;;;8.13;3.47;;;;;;;33.35;24.97;99517.31;4444495;32;32395;-65
2022/07/28 10:11:25;;;;;;;7.85;3.25;;;;;;;33.48;25.09;99511.25;4465291;32;33471;-63
2022/07/28 10:14:04;;;;;;;5.37;3.20;;;;;;;33.26;25.67;99517.00;4465664;32;33590;-63
2022/07/28 10:16:34;;;;;;;6.68;3.55;;;;;;;33.59;24.88;99504.69;4452399;32;32951;-62
2022/07/28 10:19:04;;;;;;;6.85;3.22;;;;;;;33.90;25.19;99512.25;4458323;32;33232;-63
2022/07/28 10:21:35;;;;;;;6.22;3.50;;;;;;;34.07;24.93;99502.62;4444579;32;36710;-64
2022/07/28 10:24:07;;;;;;;7.15;3.42;;;;;;;33.82;25.25;99508.91;4452442;32;33972;-62
2022/07/28 10:26:42;;;;;;;5.12;3.50;;;;;;;33.80;24.36;99505.56;4452181;32;34633;-61
2022/07/28 10:29:19;;;;;;;6.97;3.45;;;;;;;33.75;24.79;99507.53;4464320;32;33910;-62
2022/07/28 10:31:56;;;;;;;7.10;3.60;;;;;;;33.69;24.57;99500.28;4437304;32;32877;-64
2022/07/28 10:34:33;;;;;;;5.85;3.35;;;;;;;33.69;25.20;99495.56;4451284;32;33493;-63
2022/07/28 10:37:02;;;;;;;5.53;3.10;;;;;;;33.80;24.96;99499.19;4465940;32;35039;-66
2022/07/28 10:39:41;;;;;;;6.80;3.80;;;;;;;33.85;24.73;99496.44;4459782;32;33269;-66
2022/07/28 10:42:10;;;;;;;6.15;3.58;;;;;;;33.81;24.55;99500.88;4453099;32;33268;-65
2022/07/28 10:44:40;;;;;;;7.70;3.50;;;;;;;34.47;23.62;99494.59;4459601;32;33698;-64
2022/07/28 10:47:08;;;;;;;7.82;3.50;;;;;;;33.97;24.99;99490.66;4451179;32;34108;-64
2022/07/28 10:49:48;;;;;;;6.03;3.62;;;;;;;34.16;24.47;99482.63;4453006;32;32770;-66
2022/07/28 10:52:17;;;;;;;5.62;3.10;;;;;;;34.74;23.95;99481.28;4451343;32;34638;-67
2022/07/28 10:55:28;;;;;;;7.22;3.55;;;;;;;34.79;24.10;99485.97;4440947;32;32886;-66
2022/07/28 10:58:09;;;;;;;9.75;3.47;;;;;;;34.70;23.84;99479.31;4463203;32;33942;-66
2022/07/28 11:00:47;;;;;;;7.07;3.45;;;;;;;34.81;23.91;99474.59;4454017;32;34034;-67
2022/07/28 11:03:42;;;;;;;6.85;3.75;;;;;;;34.53;24.01;99474.06;4455038;32;31945;-64
2022/07/28 11:06:26;;;;;;;6.68;3.25;;;;;;;33.90;24.92;99473.41;4458201;32;33478;-65
2022/07/28 11:08:59;;;;;;;8.63;3.80;;;;;;;34.02;24.64;99474.00;4451221;32;33886;-66
2022/07/28 11:11:49;;;;;;;6.70;3.50;;;;;;;33.16;25.61;99469.78;4446255;32;32802;-64
2022/07/28 11:14:24;;;;;;;7.85;3.80;;;;;;;33.54;25.15;99465.81;4462527;32;33706;-64
2022/07/28 11:16:59;;;;;;;7.80;3.35;;;;;;;34.08;24.58;99465.41;4461138;32;34766;-62
2022/07/28 11:19:31;;;;;;;6.35;3.80;;;;;;;33.39;25.44;99472.12;4456906;32;34129;-61
2022/07/28 11:22:18;;;;;;;7.45;4.03;;;;;;;33.95;25.03;99465.91;4445234;32;33727;-63
2022/07/28 11:24:59;;;;;;;8.20;4.22;;;;;;;33.90;24.99;99465.91;4462846;32;33260;-64
2022/07/28 11:27:49;;;;;;;6.43;3.62;;;;;;;33.97;24.95;99468.44;4458434;32;32312;-63
2022/07/28 11:30:17;;;;;;;7.20;3.28;;;;;;;33.89;24.97;99472.56;4461237;32;34037;-65
2022/07/28 11:32:53;;;;;;;7.22;3.70;;;;;;;33.94;25.10;99471.75;4461137;32;34754;-63
2022/07/28 11:35:25;;;;;;;10.13;3.78;;;;;;;33.94;25.03;99472.59;4447474;32;31833;-63
2022/07/28 11:37:59;;;;;;;8.43;3.62;;;;;;;33.95;24.76;99465.09;4456046;32;35102;-64
2022/07/28 11:40:39;;;;;;;6.40;3.25;;;;;;;33.85;25.54;99466.75;4458054;32;34158;-64
2022/07/28 11:43:22;;;;;;;10.65;3.95;;;;;;;34.04;24.52;99466.25;4459042;32;33874;-62
2022/07/28 11:46:03;;;;;;;5.75;3.17;;;;;;;34.02;25.52;99466.50;4449654;32;31906;-62
2022/07/28 11:48:38;;;;;;;5.62;3.15;;;;;;;33.57;26.43;99465.28;4463424;32;33992;-65
2022/07/28 11:51:06;;;;;;;7.22;3.25;;;;;;;33.67;25.76;99467.25;4465987;32;33906;-65
2022/07/28 11:53:41;;;;;;;5.90;3.28;;;;;;;33.06;26.26;99467.81;4454401;32;32818;-65